sensor_id;sensor_type;location;lat;lon;timestamp;temperature;humidity
12386;DHT22;6257;57.634;18.310;2022-10-31T00:00:07;3.60;99.90
12386;DHT22;6257;57.634;18.310;2022-10-31T00:02:34;3.70;99.90
12386;DHT22;6257;57.634;18.310;2022-10-31T00:05:01;3.70;99.90
12386;DHT22;6257;57.634;18.310;2022-10-31T00:07:28;3.70;99.90
12386;DHT22;6257;57.634;18.310;2022-10-31T00:09:57;3.70;99.90
12386;DHT22;6257;57.634;18.310;2022-10-31T00:12:24;3.70;99.90
12386;DHT22;6257;57.634;18.310;2022-10-31T00:14:51;3.70;99.90
12386;DHT22;6257;57.634;18.310;2022-10-31T00:17:18;3.70;99.90
12386;DHT22;6257;57.634;18.310;2022-10-31T00:19:45;3.70;99.90
12386;DHT22;6257;57.634;18.310;2022-10-31T00:22:12;3.70;99.90
12386;DHT22;6257;57.634;18.310;2022-10-31T00:24:39;3.70;99.90
12386;DHT22;6257;57.634;18.310;2022-10-31T00:27:07;3.70;99.90
12386;DHT22;6257;57.634;18.310;2022-10-31T00:29:34;3.70;99.90
12386;DHT22;6257;57.634;18.310;2022-10-31T00:32:01;3.70;99.90
12386;DHT22;6257;57.634;18.310;2022-10-31T00:34:28;3.70;99.90
12386;DHT22;6257;57.634;18.310;2022-10-31T00:36:55;3.80;99.90
12386;DHT22;6257;57.634;18.310;2022-10-31T00:39:22;3.80;99.90
12386;DHT22;6257;57.634;18.310;2022-10-31T00:41:49;3.80;99.90
12386;DHT22;6257;57.634;18.310;2022-10-31T00:44:17;3.80;99.90
12386;DHT22;6257;57.634;18.310;2022-10-31T00:46:44;3.80;99.90
12386;DHT22;6257;57.634;18.310;2022-10-31T00:49:11;3.90;99.90
12386;DHT22;6257;57.634;18.310;2022-10-31T00:51:38;3.90;99.90
12386;DHT22;6257;57.634;18.310;2022-10-31T00:54:05;3.90;99.90
12386;DHT22;6257;57.634;18.310;2022-10-31T00:56:32;3.90;99.90
12386;DHT22;6257;57.634;18.310;2022-10-31T00:58:59;3.90;99.90
12386;DHT22;6257;57.634;18.310;2022-10-31T01:01:28;3.80;99.90
12386;DHT22;6257;57.634;18.310;2022-10-31T01:03:55;3.90;99.90
12386;DHT22;6257;57.634;18.310;2022-10-31T01:06:22;3.90;99.90
12386;DHT22;6257;57.634;18.310;2022-10-31T01:08:49;3.90;99.90
12386;DHT22;6257;57.634;18.310;2022-10-31T01:11:19;3.90;99.90
12386;DHT22;6257;57.634;18.310;2022-10-31T01:13:47;3.90;99.90
12386;DHT22;6257;57.634;18.310;2022-10-31T01:16:15;3.90;99.90
12386;DHT22;6257;57.634;18.310;2022-10-31T01:18:44;3.90;99.90
12386;DHT22;6257;57.634;18.310;2022-10-31T01:21:14;3.90;99.90
12386;DHT22;6257;57.634;18.310;2022-10-31T01:23:42;3.90;99.90
12386;DHT22;6257;57.634;18.310;2022-10-31T01:26:10;3.90;99.90
12386;DHT22;6257;57.634;18.310;2022-10-31T01:28:42;3.80;99.90
12386;DHT22;6257;57.634;18.310;2022-10-31T01:31:09;3.80;99.90
12386;DHT22;6257;57.634;18.310;2022-10-31T01:33:37;3.90;99.90
12386;DHT22;6257;57.634;18.310;2022-10-31T01:36:14;3.90;99.90
12386;DHT22;6257;57.634;18.310;2022-10-31T01:38:41;4.00;99.90
12386;DHT22;6257;57.634;18.310;2022-10-31T01:41:09;4.00;99.90
12386;DHT22;6257;57.634;18.310;2022-10-31T01:43:44;4.10;99.90
12386;DHT22;6257;57.634;18.310;2022-10-31T01:46:11;4.10;99.90
12386;DHT22;6257;57.634;18.310;2022-10-31T01:48:40;4.10;99.90
12386;DHT22;6257;57.634;18.310;2022-10-31T01:51:08;4.00;99.90
12386;DHT22;6257;57.634;18.310;2022-10-31T01:53:39;4.10;99.90
12386;DHT22;6257;57.634;18.310;2022-10-31T01:56:07;4.10;99.90
12386;DHT22;6257;57.634;18.310;2022-10-31T01:58:35;4.10;99.90
12386;DHT22;6257;57.634;18.310;2022-10-31T02:01:03;4.10;99.90
12386;DHT22;6257;57.634;18.310;2022-10-31T02:03:31;4.10;99.90
12386;DHT22;6257;57.634;18.310;2022-10-31T02:05:58;4.10;99.90
12386;DHT22;6257;57.634;18.310;2022-10-31T02:08:27;4.10;99.90
12386;DHT22;6257;57.634;18.310;2022-10-31T02:10:57;4.10;99.90
12386;DHT22;6257;57.634;18.310;2022-10-31T02:13:26;4.10;99.90
12386;DHT22;6257;57.634;18.310;2022-10-31T02:15:57;4.10;99.90
12386;DHT22;6257;57.634;18.310;2022-10-31T02:18:26;4.10;99.90
12386;DHT22;6257;57.634;18.310;2022-10-31T02:21:01;4.20;99.90
12386;DHT22;6257;57.634;18.310;2022-10-31T02:26:46;4.20;99.90
12386;DHT22;6257;57.634;18.310;2022-10-31T02:32:33;4.40;99.90
12386;DHT22;6257;57.634;18.310;2022-10-31T02:35:11;4.70;99.90
12386;DHT22;6257;57.634;18.310;2022-10-31T02:37:46;4.90;99.90
12386;DHT22;6257;57.634;18.310;2022-10-31T02:40:21;5.00;99.90
12386;DHT22;6257;57.634;18.310;2022-10-31T02:42:54;5.00;99.90
12386;DHT22;6257;57.634;18.310;2022-10-31T02:45:27;5.10;99.90
12386;DHT22;6257;57.634;18.310;2022-10-31T02:48:01;5.10;99.90
12386;DHT22;6257;57.634;18.310;2022-10-31T02:50:36;5.10;99.90
12386;DHT22;6257;57.634;18.310;2022-10-31T02:53:04;5.10;99.90
12386;DHT22;6257;57.634;18.310;2022-10-31T02:55:47;5.20;99.90
12386;DHT22;6257;57.634;18.310;2022-10-31T02:58:21;5.20;99.90
12386;DHT22;6257;57.634;18.310;2022-10-31T03:03:42;5.40;99.90
12386;DHT22;6257;57.634;18.310;2022-10-31T03:06:17;5.40;99.90
12386;DHT22;6257;57.634;18.310;2022-10-31T03:08:59;5.40;99.90
12386;DHT22;6257;57.634;18.310;2022-10-31T03:11:31;5.40;99.90
12386;DHT22;6257;57.634;18.310;2022-10-31T03:14:02;5.40;99.90
12386;DHT22;6257;57.634;18.310;2022-10-31T03:16:39;5.40;99.90
12386;DHT22;6257;57.634;18.310;2022-10-31T03:19:13;5.40;99.90
12386;DHT22;6257;57.634;18.310;2022-10-31T03:21:44;5.40;99.90
12386;DHT22;6257;57.634;18.310;2022-10-31T03:24:13;5.40;99.90
12386;DHT22;6257;57.634;18.310;2022-10-31T03:26:44;5.30;99.90
12386;DHT22;6257;57.634;18.310;2022-10-31T03:29:15;5.30;99.90
12386;DHT22;6257;57.634;18.310;2022-10-31T03:31:46;5.30;99.90
12386;DHT22;6257;57.634;18.310;2022-10-31T03:34:17;5.20;99.90
12386;DHT22;6257;57.634;18.310;2022-10-31T03:36:48;5.30;99.90
12386;DHT22;6257;57.634;18.310;2022-10-31T03:39:18;5.30;99.90
12386;DHT22;6257;57.634;18.310;2022-10-31T03:41:49;5.30;99.90
12386;DHT22;6257;57.634;18.310;2022-10-31T03:44:19;5.20;99.90
12386;DHT22;6257;57.634;18.310;2022-10-31T03:46:47;5.20;99.90
12386;DHT22;6257;57.634;18.310;2022-10-31T03:49:16;5.20;99.90
12386;DHT22;6257;57.634;18.310;2022-10-31T03:51:46;5.20;99.90
12386;DHT22;6257;57.634;18.310;2022-10-31T03:54:20;5.10;99.90
12386;DHT22;6257;57.634;18.310;2022-10-31T03:56:52;5.10;99.90
12386;DHT22;6257;57.634;18.310;2022-10-31T03:59:23;5.10;99.90
12386;DHT22;6257;57.634;18.310;2022-10-31T04:01:56;5.10;99.90
12386;DHT22;6257;57.634;18.310;2022-10-31T04:04:26;5.10;99.90
12386;DHT22;6257;57.634;18.310;2022-10-31T04:06:55;5.10;99.90
12386;DHT22;6257;57.634;18.310;2022-10-31T04:09:24;5.10;99.90
12386;DHT22;6257;57.634;18.310;2022-10-31T04:11:54;5.10;99.90
12386;DHT22;6257;57.634;18.310;2022-10-31T04:14:25;5.10;99.90
12386;DHT22;6257;57.634;18.310;2022-10-31T04:16:54;5.10;99.90
12386;DHT22;6257;57.634;18.310;2022-10-31T04:19:21;5.10;99.90
12386;DHT22;6257;57.634;18.310;2022-10-31T04:21:49;5.10;99.90
12386;DHT22;6257;57.634;18.310;2022-10-31T04:24:16;5.10;99.90
12386;DHT22;6257;57.634;18.310;2022-10-31T04:26:43;5.20;99.90
12386;DHT22;6257;57.634;18.310;2022-10-31T04:29:10;5.20;99.90
12386;DHT22;6257;57.634;18.310;2022-10-31T04:31:37;5.30;99.90
12386;DHT22;6257;57.634;18.310;2022-10-31T04:34:04;5.40;99.90
12386;DHT22;6257;57.634;18.310;2022-10-31T04:36:32;5.60;99.90
12386;DHT22;6257;57.634;18.310;2022-10-31T04:39:01;5.80;99.90
12386;DHT22;6257;57.634;18.310;2022-10-31T04:41:28;6.00;99.90
12386;DHT22;6257;57.634;18.310;2022-10-31T04:43:55;6.10;99.90
12386;DHT22;6257;57.634;18.310;2022-10-31T04:46:22;6.30;99.90
12386;DHT22;6257;57.634;18.310;2022-10-31T04:48:49;6.40;99.90
12386;DHT22;6257;57.634;18.310;2022-10-31T04:51:16;6.50;99.90
12386;DHT22;6257;57.634;18.310;2022-10-31T04:53:43;6.60;99.90
12386;DHT22;6257;57.634;18.310;2022-10-31T04:56:11;6.70;99.90
12386;DHT22;6257;57.634;18.310;2022-10-31T04:58:38;6.80;99.90
12386;DHT22;6257;57.634;18.310;2022-10-31T05:01:05;6.80;99.90
12386;DHT22;6257;57.634;18.310;2022-10-31T05:03:32;6.90;99.90
12386;DHT22;6257;57.634;18.310;2022-10-31T05:05:59;6.90;99.90
12386;DHT22;6257;57.634;18.310;2022-10-31T05:08:26;7.00;99.90
12386;DHT22;6257;57.634;18.310;2022-10-31T05:10:53;7.00;99.90
12386;DHT22;6257;57.634;18.310;2022-10-31T05:13:21;7.10;99.90
12386;DHT22;6257;57.634;18.310;2022-10-31T05:15:49;7.10;99.90
12386;DHT22;6257;57.634;18.310;2022-10-31T05:18:16;7.20;99.90
12386;DHT22;6257;57.634;18.310;2022-10-31T05:20:43;7.20;99.90
12386;DHT22;6257;57.634;18.310;2022-10-31T05:23:10;7.20;99.90
12386;DHT22;6257;57.634;18.310;2022-10-31T05:25:39;7.20;99.90
12386;DHT22;6257;57.634;18.310;2022-10-31T05:28:06;7.30;99.90
12386;DHT22;6257;57.634;18.310;2022-10-31T05:30:35;7.30;99.90
12386;DHT22;6257;57.634;18.310;2022-10-31T05:33:02;7.30;99.90
12386;DHT22;6257;57.634;18.310;2022-10-31T05:35:30;7.30;99.90
12386;DHT22;6257;57.634;18.310;2022-10-31T05:37:58;7.40;99.90
12386;DHT22;6257;57.634;18.310;2022-10-31T05:40:27;7.40;99.90
12386;DHT22;6257;57.634;18.310;2022-10-31T05:42:55;7.40;99.90
12386;DHT22;6257;57.634;18.310;2022-10-31T05:45:23;7.40;99.90
12386;DHT22;6257;57.634;18.310;2022-10-31T05:47:53;7.40;99.90
12386;DHT22;6257;57.634;18.310;2022-10-31T05:50:20;7.50;99.90
12386;DHT22;6257;57.634;18.310;2022-10-31T05:52:53;7.50;99.90
12386;DHT22;6257;57.634;18.310;2022-10-31T05:55:20;7.50;99.90
12386;DHT22;6257;57.634;18.310;2022-10-31T05:57:47;7.50;99.90
12386;DHT22;6257;57.634;18.310;2022-10-31T06:00:14;7.60;99.90
12386;DHT22;6257;57.634;18.310;2022-10-31T06:02:41;7.60;99.90
12386;DHT22;6257;57.634;18.310;2022-10-31T06:05:09;7.60;99.90
12386;DHT22;6257;57.634;18.310;2022-10-31T06:07:36;7.70;99.90
12386;DHT22;6257;57.634;18.310;2022-10-31T06:10:06;7.70;99.90
12386;DHT22;6257;57.634;18.310;2022-10-31T06:12:34;7.80;99.90
12386;DHT22;6257;57.634;18.310;2022-10-31T06:15:04;7.80;99.90
12386;DHT22;6257;57.634;18.310;2022-10-31T06:17:32;7.80;99.90
12386;DHT22;6257;57.634;18.310;2022-10-31T06:19:59;7.80;99.90
12386;DHT22;6257;57.634;18.310;2022-10-31T06:22:28;7.90;99.90
12386;DHT22;6257;57.634;18.310;2022-10-31T06:24:55;7.90;99.90
12386;DHT22;6257;57.634;18.310;2022-10-31T06:27:22;8.00;99.90
12386;DHT22;6257;57.634;18.310;2022-10-31T06:29:49;8.00;99.90
12386;DHT22;6257;57.634;18.310;2022-10-31T06:32:17;8.10;99.90
12386;DHT22;6257;57.634;18.310;2022-10-31T06:34:44;8.10;99.90
12386;DHT22;6257;57.634;18.310;2022-10-31T06:37:13;8.20;99.90
12386;DHT22;6257;57.634;18.310;2022-10-31T06:39:41;8.30;99.90
12386;DHT22;6257;57.634;18.310;2022-10-31T06:42:08;8.30;99.90
12386;DHT22;6257;57.634;18.310;2022-10-31T06:44:35;8.40;99.90
12386;DHT22;6257;57.634;18.310;2022-10-31T06:47:02;8.40;99.90
12386;DHT22;6257;57.634;18.310;2022-10-31T06:49:29;8.40;99.90
12386;DHT22;6257;57.634;18.310;2022-10-31T06:51:56;8.50;99.90
12386;DHT22;6257;57.634;18.310;2022-10-31T06:54:23;8.50;99.90
12386;DHT22;6257;57.634;18.310;2022-10-31T06:56:51;8.50;99.90
12386;DHT22;6257;57.634;18.310;2022-10-31T06:59:18;8.50;99.90
12386;DHT22;6257;57.634;18.310;2022-10-31T07:01:45;8.60;99.90
12386;DHT22;6257;57.634;18.310;2022-10-31T07:04:13;8.70;99.90
12386;DHT22;6257;57.634;18.310;2022-10-31T07:06:40;8.80;99.90
12386;DHT22;6257;57.634;18.310;2022-10-31T07:09:07;8.90;99.90
12386;DHT22;6257;57.634;18.310;2022-10-31T07:11:33;9.00;99.90
12386;DHT22;6257;57.634;18.310;2022-10-31T07:14:02;9.00;99.90
12386;DHT22;6257;57.634;18.310;2022-10-31T07:16:29;9.10;99.90
12386;DHT22;6257;57.634;18.310;2022-10-31T07:18:56;9.10;99.90
12386;DHT22;6257;57.634;18.310;2022-10-31T07:21:23;9.20;99.90
12386;DHT22;6257;57.634;18.310;2022-10-31T07:23:50;9.40;99.90
12386;DHT22;6257;57.634;18.310;2022-10-31T07:26:17;9.40;99.90
12386;DHT22;6257;57.634;18.310;2022-10-31T07:28:45;9.50;99.90
12386;DHT22;6257;57.634;18.310;2022-10-31T07:31:14;9.50;99.90
12386;DHT22;6257;57.634;18.310;2022-10-31T07:33:41;9.50;99.90
12386;DHT22;6257;57.634;18.310;2022-10-31T07:36:08;9.50;99.90
12386;DHT22;6257;57.634;18.310;2022-10-31T07:38:35;9.50;99.90
12386;DHT22;6257;57.634;18.310;2022-10-31T07:41:02;9.50;99.90
12386;DHT22;6257;57.634;18.310;2022-10-31T07:43:29;9.50;99.90
12386;DHT22;6257;57.634;18.310;2022-10-31T07:45:56;9.50;99.90
12386;DHT22;6257;57.634;18.310;2022-10-31T07:48:25;9.60;99.90
12386;DHT22;6257;57.634;18.310;2022-10-31T07:50:52;9.70;99.90
12386;DHT22;6257;57.634;18.310;2022-10-31T07:53:19;9.70;99.90
12386;DHT22;6257;57.634;18.310;2022-10-31T07:55:46;9.70;99.90
12386;DHT22;6257;57.634;18.310;2022-10-31T07:58:14;9.80;99.90
12386;DHT22;6257;57.634;18.310;2022-10-31T08:00:43;9.80;99.90
12386;DHT22;6257;57.634;18.310;2022-10-31T08:03:11;9.80;99.90
12386;DHT22;6257;57.634;18.310;2022-10-31T08:05:40;10.00;99.90
12386;DHT22;6257;57.634;18.310;2022-10-31T08:08:08;10.10;99.90
12386;DHT22;6257;57.634;18.310;2022-10-31T08:10:35;10.10;99.90
12386;DHT22;6257;57.634;18.310;2022-10-31T08:13:04;10.20;99.90
12386;DHT22;6257;57.634;18.310;2022-10-31T08:15:32;10.30;99.90
12386;DHT22;6257;57.634;18.310;2022-10-31T08:17:59;10.30;99.90
12386;DHT22;6257;57.634;18.310;2022-10-31T08:20:27;10.40;99.90
12386;DHT22;6257;57.634;18.310;2022-10-31T08:23:00;10.40;99.90
12386;DHT22;6257;57.634;18.310;2022-10-31T08:25:31;10.50;99.90
12386;DHT22;6257;57.634;18.310;2022-10-31T08:27:58;10.60;99.90
12386;DHT22;6257;57.634;18.310;2022-10-31T08:30:27;10.70;99.90
12386;DHT22;6257;57.634;18.310;2022-10-31T08:32:59;10.80;99.90
12386;DHT22;6257;57.634;18.310;2022-10-31T08:35:26;11.00;99.90
12386;DHT22;6257;57.634;18.310;2022-10-31T08:37:53;11.10;99.90
12386;DHT22;6257;57.634;18.310;2022-10-31T08:40:22;11.20;99.90
12386;DHT22;6257;57.634;18.310;2022-10-31T08:42:56;11.30;99.90
12386;DHT22;6257;57.634;18.310;2022-10-31T08:45:23;11.50;99.90
12386;DHT22;6257;57.634;18.310;2022-10-31T08:47:51;11.60;99.90
12386;DHT22;6257;57.634;18.310;2022-10-31T08:50:18;11.70;99.90
12386;DHT22;6257;57.634;18.310;2022-10-31T08:52:45;11.70;99.90
12386;DHT22;6257;57.634;18.310;2022-10-31T08:55:12;11.70;99.90
12386;DHT22;6257;57.634;18.310;2022-10-31T08:57:40;11.80;99.90
12386;DHT22;6257;57.634;18.310;2022-10-31T09:00:08;11.90;99.90
12386;DHT22;6257;57.634;18.310;2022-10-31T09:02:36;12.00;99.90
12386;DHT22;6257;57.634;18.310;2022-10-31T09:05:04;12.20;99.90
12386;DHT22;6257;57.634;18.310;2022-10-31T09:07:31;12.40;99.90
12386;DHT22;6257;57.634;18.310;2022-10-31T09:09:58;12.50;99.90
12386;DHT22;6257;57.634;18.310;2022-10-31T09:12:25;12.60;99.90
12386;DHT22;6257;57.634;18.310;2022-10-31T09:14:53;12.60;99.90
12386;DHT22;6257;57.634;18.310;2022-10-31T09:17:20;12.50;99.90
12386;DHT22;6257;57.634;18.310;2022-10-31T09:19:48;12.40;99.90
12386;DHT22;6257;57.634;18.310;2022-10-31T09:22:15;12.30;99.90
12386;DHT22;6257;57.634;18.310;2022-10-31T09:24:42;12.20;99.90
12386;DHT22;6257;57.634;18.310;2022-10-31T09:27:09;12.20;99.90
12386;DHT22;6257;57.634;18.310;2022-10-31T09:29:35;12.10;99.90
12386;DHT22;6257;57.634;18.310;2022-10-31T09:32:07;12.10;99.90
12386;DHT22;6257;57.634;18.310;2022-10-31T09:34:34;12.10;99.90
12386;DHT22;6257;57.634;18.310;2022-10-31T09:37:01;12.20;99.90
12386;DHT22;6257;57.634;18.310;2022-10-31T09:39:28;12.30;99.90
12386;DHT22;6257;57.634;18.310;2022-10-31T09:42:07;12.30;99.90
12386;DHT22;6257;57.634;18.310;2022-10-31T09:44:45;12.40;99.90
12386;DHT22;6257;57.634;18.310;2022-10-31T09:47:23;12.30;99.90
12386;DHT22;6257;57.634;18.310;2022-10-31T09:50:07;12.30;99.90
12386;DHT22;6257;57.634;18.310;2022-10-31T09:52:39;12.30;99.90
12386;DHT22;6257;57.634;18.310;2022-10-31T09:55:14;12.30;99.90
12386;DHT22;6257;57.634;18.310;2022-10-31T09:57:43;12.30;99.90
12386;DHT22;6257;57.634;18.310;2022-10-31T10:00:16;12.40;99.90
12386;DHT22;6257;57.634;18.310;2022-10-31T10:02:47;12.30;99.90
12386;DHT22;6257;57.634;18.310;2022-10-31T10:05:18;12.30;99.90
12386;DHT22;6257;57.634;18.310;2022-10-31T10:07:53;12.30;99.90
12386;DHT22;6257;57.634;18.310;2022-10-31T10:10:30;12.30;99.90
12386;DHT22;6257;57.634;18.310;2022-10-31T10:13:16;12.30;99.90
12386;DHT22;6257;57.634;18.310;2022-10-31T10:15:56;12.40;99.90
12386;DHT22;6257;57.634;18.310;2022-10-31T10:18:35;12.40;99.90
12386;DHT22;6257;57.634;18.310;2022-10-31T10:21:12;12.50;99.90
12386;DHT22;6257;57.634;18.310;2022-10-31T10:23:51;12.40;99.90
12386;DHT22;6257;57.634;18.310;2022-10-31T10:26:22;12.40;99.90
12386;DHT22;6257;57.634;18.310;2022-10-31T10:28:57;12.30;99.90
12386;DHT22;6257;57.634;18.310;2022-10-31T10:31:27;12.30;99.90
12386;DHT22;6257;57.634;18.310;2022-10-31T10:34:01;12.20;99.90
12386;DHT22;6257;57.634;18.310;2022-10-31T10:36:37;12.20;99.90
12386;DHT22;6257;57.634;18.310;2022-10-31T10:39:10;12.20;99.90
12386;DHT22;6257;57.634;18.310;2022-10-31T10:41:42;12.10;99.90
12386;DHT22;6257;57.634;18.310;2022-10-31T10:44:10;12.10;99.90
12386;DHT22;6257;57.634;18.310;2022-10-31T10:46:41;12.10;99.90
12386;DHT22;6257;57.634;18.310;2022-10-31T10:49:31;12.00;99.90
12386;DHT22;6257;57.634;18.310;2022-10-31T10:52:02;12.00;99.90
12386;DHT22;6257;57.634;18.310;2022-10-31T10:54:41;12.00;99.90
12386;DHT22;6257;57.634;18.310;2022-10-31T10:57:22;11.90;99.90
12386;DHT22;6257;57.634;18.310;2022-10-31T10:59:51;11.80;99.90
12386;DHT22;6257;57.634;18.310;2022-10-31T11:02:19;11.80;99.90
12386;DHT22;6257;57.634;18.310;2022-10-31T11:04:51;11.80;99.90
12386;DHT22;6257;57.634;18.310;2022-10-31T11:07:18;11.80;99.90
12386;DHT22;6257;57.634;18.310;2022-10-31T11:09:45;11.80;99.90
12386;DHT22;6257;57.634;18.310;2022-10-31T11:12:20;11.70;99.90
12386;DHT22;6257;57.634;18.310;2022-10-31T11:14:50;11.70;99.90
12386;DHT22;6257;57.634;18.310;2022-10-31T11:17:25;11.80;99.90
12386;DHT22;6257;57.634;18.310;2022-10-31T11:20:06;11.70;99.90
12386;DHT22;6257;57.634;18.310;2022-10-31T11:22:48;11.60;99.90
12386;DHT22;6257;57.634;18.310;2022-10-31T11:25:21;11.60;99.90
12386;DHT22;6257;57.634;18.310;2022-10-31T11:27:59;11.60;99.90
12386;DHT22;6257;57.634;18.310;2022-10-31T11:30:27;11.50;99.90
12386;DHT22;6257;57.634;18.310;2022-10-31T11:32:54;11.50;99.90
12386;DHT22;6257;57.634;18.310;2022-10-31T11:35:24;11.40;99.90
12386;DHT22;6257;57.634;18.310;2022-10-31T11:37:54;11.40;99.90
12386;DHT22;6257;57.634;18.310;2022-10-31T11:40:25;11.30;99.90
12386;DHT22;6257;57.634;18.310;2022-10-31T11:42:55;11.40;99.90
12386;DHT22;6257;57.634;18.310;2022-10-31T11:45:29;11.40;99.90
12386;DHT22;6257;57.634;18.310;2022-10-31T11:47:58;11.40;99.90
12386;DHT22;6257;57.634;18.310;2022-10-31T11:50:32;11.40;99.90
12386;DHT22;6257;57.634;18.310;2022-10-31T11:53:01;11.40;99.90
12386;DHT22;6257;57.634;18.310;2022-10-31T11:55:33;11.40;99.90
12386;DHT22;6257;57.634;18.310;2022-10-31T11:58:01;11.40;99.90
12386;DHT22;6257;57.634;18.310;2022-10-31T12:00:29;11.40;99.90
12386;DHT22;6257;57.634;18.310;2022-10-31T12:03:25;11.40;99.90
12386;DHT22;6257;57.634;18.310;2022-10-31T12:05:58;11.40;99.90
12386;DHT22;6257;57.634;18.310;2022-10-31T12:08:30;11.40;99.90
12386;DHT22;6257;57.634;18.310;2022-10-31T12:11:01;11.40;99.90
12386;DHT22;6257;57.634;18.310;2022-10-31T12:13:33;11.40;99.90
12386;DHT22;6257;57.634;18.310;2022-10-31T12:16:05;11.40;99.90
12386;DHT22;6257;57.634;18.310;2022-10-31T12:18:47;11.40;99.90
12386;DHT22;6257;57.634;18.310;2022-10-31T12:21:31;11.40;99.90
12386;DHT22;6257;57.634;18.310;2022-10-31T12:24:10;11.40;99.90
12386;DHT22;6257;57.634;18.310;2022-10-31T12:26:46;11.40;99.90
12386;DHT22;6257;57.634;18.310;2022-10-31T12:29:32;11.40;99.90
12386;DHT22;6257;57.634;18.310;2022-10-31T12:32:15;11.30;99.90
12386;DHT22;6257;57.634;18.310;2022-10-31T12:35:01;11.40;99.90
12386;DHT22;6257;57.634;18.310;2022-10-31T12:37:42;11.40;99.90
12386;DHT22;6257;57.634;18.310;2022-10-31T12:40:29;11.40;99.90
12386;DHT22;6257;57.634;18.310;2022-10-31T12:43:07;11.40;99.90
12386;DHT22;6257;57.634;18.310;2022-10-31T12:45:51;11.40;99.90
12386;DHT22;6257;57.634;18.310;2022-10-31T12:48:38;11.50;99.90
12386;DHT22;6257;57.634;18.310;2022-10-31T12:51:13;11.60;99.90
12386;DHT22;6257;57.634;18.310;2022-10-31T12:53:55;11.70;99.90
12386;DHT22;6257;57.634;18.310;2022-10-31T12:56:36;11.80;99.90
12386;DHT22;6257;57.634;18.310;2022-10-31T12:59:11;11.70;99.90
12386;DHT22;6257;57.634;18.310;2022-10-31T13:01:45;11.80;99.90
12386;DHT22;6257;57.634;18.310;2022-10-31T13:04:16;11.80;99.90
12386;DHT22;6257;57.634;18.310;2022-10-31T13:06:48;11.80;99.90
12386;DHT22;6257;57.634;18.310;2022-10-31T13:09:19;11.80;99.90
12386;DHT22;6257;57.634;18.310;2022-10-31T13:11:50;11.80;99.90
12386;DHT22;6257;57.634;18.310;2022-10-31T13:14:24;11.90;99.90
12386;DHT22;6257;57.634;18.310;2022-10-31T13:16:55;11.90;99.90
12386;DHT22;6257;57.634;18.310;2022-10-31T13:19:25;12.00;99.90
12386;DHT22;6257;57.634;18.310;2022-10-31T13:21:58;12.10;99.90
12386;DHT22;6257;57.634;18.310;2022-10-31T13:24:33;12.10;99.90
12386;DHT22;6257;57.634;18.310;2022-10-31T13:27:14;12.10;99.90
12386;DHT22;6257;57.634;18.310;2022-10-31T13:29:48;12.10;99.90
12386;DHT22;6257;57.634;18.310;2022-10-31T13:32:17;12.00;99.90
12386;DHT22;6257;57.634;18.310;2022-10-31T13:34:47;12.00;99.90
12386;DHT22;6257;57.634;18.310;2022-10-31T13:37:25;12.00;99.90
12386;DHT22;6257;57.634;18.310;2022-10-31T13:40:05;12.00;99.90
12386;DHT22;6257;57.634;18.310;2022-10-31T13:42:49;12.00;99.90
12386;DHT22;6257;57.634;18.310;2022-10-31T13:45:20;12.00;99.90
12386;DHT22;6257;57.634;18.310;2022-10-31T13:47:56;12.00;99.90
12386;DHT22;6257;57.634;18.310;2022-10-31T13:50:25;12.10;99.90
12386;DHT22;6257;57.634;18.310;2022-10-31T13:53:09;12.00;99.90
12386;DHT22;6257;57.634;18.310;2022-10-31T13:55:41;12.00;99.90
12386;DHT22;6257;57.634;18.310;2022-10-31T13:58:23;11.90;99.90
12386;DHT22;6257;57.634;18.310;2022-10-31T14:01:15;11.90;99.90
12386;DHT22;6257;57.634;18.310;2022-10-31T14:03:45;11.90;99.90
12386;DHT22;6257;57.634;18.310;2022-10-31T14:06:15;11.90;99.90
12386;DHT22;6257;57.634;18.310;2022-10-31T14:08:49;11.80;99.90
12386;DHT22;6257;57.634;18.310;2022-10-31T14:11:23;11.90;99.90
12386;DHT22;6257;57.634;18.310;2022-10-31T14:13:52;11.90;99.90
12386;DHT22;6257;57.634;18.310;2022-10-31T14:16:23;11.90;99.90
12386;DHT22;6257;57.634;18.310;2022-10-31T14:18:58;11.90;99.90
12386;DHT22;6257;57.634;18.310;2022-10-31T14:21:30;11.90;99.90
12386;DHT22;6257;57.634;18.310;2022-10-31T14:23:57;11.90;99.90
12386;DHT22;6257;57.634;18.310;2022-10-31T14:26:35;11.90;99.90
12386;DHT22;6257;57.634;18.310;2022-10-31T14:29:25;11.90;99.90
12386;DHT22;6257;57.634;18.310;2022-10-31T14:31:58;11.80;99.90
12386;DHT22;6257;57.634;18.310;2022-10-31T14:34:28;11.80;99.90
12386;DHT22;6257;57.634;18.310;2022-10-31T14:37:17;11.80;99.90
12386;DHT22;6257;57.634;18.310;2022-10-31T14:40:13;11.70;99.90
12386;DHT22;6257;57.634;18.310;2022-10-31T14:45:45;11.60;99.90
12386;DHT22;6257;57.634;18.310;2022-10-31T14:48:27;11.60;99.90
12386;DHT22;6257;57.634;18.310;2022-10-31T14:50:56;11.50;99.90
12386;DHT22;6257;57.634;18.310;2022-10-31T14:53:27;11.50;99.90
12386;DHT22;6257;57.634;18.310;2022-10-31T14:55:56;11.50;99.90
12386;DHT22;6257;57.634;18.310;2022-10-31T14:58:28;11.50;99.90
12386;DHT22;6257;57.634;18.310;2022-10-31T15:00:57;11.40;99.90
12386;DHT22;6257;57.634;18.310;2022-10-31T15:03:29;11.40;99.90
12386;DHT22;6257;57.634;18.310;2022-10-31T15:06:00;11.40;99.90
12386;DHT22;6257;57.634;18.310;2022-10-31T15:08:37;11.30;99.90
12386;DHT22;6257;57.634;18.310;2022-10-31T15:11:12;11.30;99.90
12386;DHT22;6257;57.634;18.310;2022-10-31T15:13:45;11.30;99.90
12386;DHT22;6257;57.634;18.310;2022-10-31T15:16:15;11.30;99.90
12386;DHT22;6257;57.634;18.310;2022-10-31T15:18:53;11.30;99.90
12386;DHT22;6257;57.634;18.310;2022-10-31T15:21:22;11.30;99.90
12386;DHT22;6257;57.634;18.310;2022-10-31T15:23:52;11.30;99.90
12386;DHT22;6257;57.634;18.310;2022-10-31T15:26:21;11.30;99.90
12386;DHT22;6257;57.634;18.310;2022-10-31T15:28:59;11.30;99.90
12386;DHT22;6257;57.634;18.310;2022-10-31T15:31:27;11.30;99.90
12386;DHT22;6257;57.634;18.310;2022-10-31T15:33:55;11.30;99.90
12386;DHT22;6257;57.634;18.310;2022-10-31T15:36:25;11.30;99.90
12386;DHT22;6257;57.634;18.310;2022-10-31T15:38:55;11.30;99.90
12386;DHT22;6257;57.634;18.310;2022-10-31T15:41:27;11.30;99.90
12386;DHT22;6257;57.634;18.310;2022-10-31T15:43:59;11.30;99.90
12386;DHT22;6257;57.634;18.310;2022-10-31T15:46:27;11.40;99.90
12386;DHT22;6257;57.634;18.310;2022-10-31T15:48:54;11.30;99.90
12386;DHT22;6257;57.634;18.310;2022-10-31T15:51:26;11.30;99.90
12386;DHT22;6257;57.634;18.310;2022-10-31T15:53:54;11.40;99.90
12386;DHT22;6257;57.634;18.310;2022-10-31T15:56:25;11.30;99.90
12386;DHT22;6257;57.634;18.310;2022-10-31T15:58:54;11.30;99.90
12386;DHT22;6257;57.634;18.310;2022-10-31T16:01:25;11.40;99.90
12386;DHT22;6257;57.634;18.310;2022-10-31T16:03:59;11.40;99.90
12386;DHT22;6257;57.634;18.310;2022-10-31T16:06:27;11.40;99.90
12386;DHT22;6257;57.634;18.310;2022-10-31T16:08:54;11.40;99.90
12386;DHT22;6257;57.634;18.310;2022-10-31T16:11:24;11.30;99.90